sim
Sign-in with your pilot id or email,
or register
Callsign
Passwort

Schedule Details

Flight Number: OEF9061
Departure: Boston Logan International Airport (KBOS) at 05:00
Arrival: Munich Airport (EDDM) at 11:40

Weather Information
Getting current METAR information for KBOS 240354Z 27008KT 10SM CLR 18/12 A2986 RMK AO2 SLP110 T01830122
Getting current METAR information for EDDM 240350Z VRB01KT CAVOK 10/10 Q1009 NOSIG

Schedule Frequency

Route Map